createdAt,value
2019-04-03T00:00:39.079Z,4.00
2019-04-03T00:01:39.013Z,4.00
2019-04-03T00:02:38.994Z,4.00
2019-04-03T00:03:38.969Z,4.00
2019-04-03T00:04:39.052Z,4.00
2019-04-03T00:05:38.925Z,4.00
2019-04-03T00:06:38.907Z,4.00
2019-04-03T00:07:38.891Z,4.00
2019-04-03T00:08:38.860Z,4.00
2019-04-03T00:09:38.841Z,4.00
2019-04-03T00:10:38.816Z,4.00
2019-04-03T00:11:39.909Z,4.00
2019-04-03T00:12:40.518Z,4.00
2019-04-03T00:13:41.542Z,4.00
2019-04-03T00:14:38.873Z,4.00
2019-04-03T00:15:38.709Z,4.00
2019-04-03T00:16:38.801Z,4.00
2019-04-03T00:17:38.663Z,4.00
2019-04-03T00:18:38.647Z,4.00
2019-04-03T00:19:38.625Z,4.00
2019-04-03T00:20:38.614Z,4.00
2019-04-03T00:21:38.691Z,4.00
2019-04-03T00:22:38.556Z,4.00
2019-04-03T00:23:38.538Z,4.00
2019-04-03T00:24:38.514Z,4.00
2019-04-03T00:25:38.490Z,4.00
2019-04-03T00:26:38.466Z,4.00
2019-04-03T00:27:38.453Z,4.00
2019-04-03T00:28:38.423Z,4.00
2019-04-03T00:29:38.402Z,4.00
2019-04-03T00:30:38.380Z,4.00
2019-04-03T00:31:38.360Z,4.00
2019-04-03T00:32:38.345Z,4.00
2019-04-03T00:33:38.322Z,4.00
2019-04-03T00:34:38.419Z,4.00
2019-04-03T00:35:38.275Z,4.00
2019-04-03T00:36:38.248Z,4.00
2019-04-03T00:37:38.256Z,4.00
2019-04-03T00:38:38.206Z,4.00
2019-04-03T00:39:38.187Z,4.00
2019-04-03T00:40:38.218Z,4.00
2019-04-03T00:41:38.140Z,4.00
2019-04-03T00:42:38.117Z,4.00
2019-04-03T00:43:38.097Z,4.00
2019-04-03T00:44:38.076Z,4.00
2019-04-03T00:45:38.061Z,4.00
2019-04-03T00:46:38.032Z,4.00
2019-04-03T00:47:38.016Z,4.00
2019-04-03T00:48:37.998Z,4.00
2019-04-03T00:49:37.968Z,4.00
2019-04-03T00:50:37.951Z,4.00
2019-04-03T00:51:37.923Z,4.00
2019-04-03T00:52:37.907Z,4.00
2019-04-03T00:53:37.885Z,4.00
2019-04-03T00:54:37.858Z,4.00
2019-04-03T00:55:37.840Z,4.00
2019-04-03T00:56:37.931Z,4.00
2019-04-03T00:57:37.798Z,4.00
2019-04-03T00:58:37.846Z,4.00
2019-04-03T00:59:37.754Z,4.00
2019-04-03T01:00:37.730Z,4.00
2019-04-03T01:01:37.782Z,4.00
2019-04-03T01:02:37.688Z,4.00
2019-04-03T01:03:37.663Z,4.00
2019-04-03T01:04:37.643Z,4.00
2019-04-03T01:05:37.622Z,4.00
2019-04-03T01:06:37.605Z,4.00
2019-04-03T01:07:37.583Z,4.00
2019-04-03T01:08:37.559Z,4.00
2019-04-03T01:09:37.537Z,4.00
2019-04-03T01:10:37.514Z,4.00
2019-04-03T01:11:37.576Z,4.00
2019-04-03T01:12:37.480Z,4.00
2019-04-03T01:13:37.450Z,4.00
2019-04-03T01:14:37.427Z,4.00
2019-04-03T01:15:37.407Z,4.00
2019-04-03T01:16:37.386Z,4.00
2019-04-03T01:17:37.365Z,4.00
2019-04-03T01:18:37.355Z,4.00
2019-04-03T01:19:37.319Z,4.00
2019-04-03T01:20:37.298Z,4.00
2019-04-03T01:21:37.557Z,4.00
2019-04-03T01:22:37.848Z,4.00
2019-04-03T01:23:38.118Z,4.00
2019-04-03T01:24:38.750Z,4.00
2019-04-03T01:25:39.136Z,4.00
2019-04-03T01:26:37.168Z,4.00
2019-04-03T01:27:37.148Z,4.00
2019-04-03T01:28:37.125Z,4.00
2019-04-03T01:29:37.259Z,4.00
2019-04-03T01:30:37.087Z,4.00
2019-04-03T01:31:37.221Z,4.00
2019-04-03T01:32:37.041Z,4.00
2019-04-03T01:33:37.020Z,4.00
2019-04-03T01:34:37.209Z,4.00
2019-04-03T01:35:37.176Z,4.00
2019-04-03T01:36:37.025Z,4.00
2019-04-03T01:37:36.931Z,4.00
2019-04-03T01:38:36.919Z,4.00
2019-04-03T01:39:36.888Z,4.00
2019-04-03T01:40:36.868Z,4.00
2019-04-03T01:41:37.005Z,4.00
2019-04-03T01:42:36.834Z,4.00
2019-04-03T01:43:36.815Z,4.00
2019-04-03T01:44:36.781Z,4.00
2019-04-03T01:45:36.772Z,4.00
2019-04-03T01:46:36.784Z,4.00
2019-04-03T01:47:36.718Z,4.00
2019-04-03T01:48:36.697Z,4.00
2019-04-03T01:49:36.675Z,4.00
2019-04-03T01:50:36.803Z,4.00
2019-04-03T01:51:36.634Z,4.00
2019-04-03T01:52:36.765Z,4.00
2019-04-03T01:53:36.590Z,4.00
2019-04-03T01:54:36.569Z,4.00
2019-04-03T01:55:36.552Z,4.00
2019-04-03T01:56:36.528Z,4.00
2019-04-03T01:57:37.125Z,4.00
2019-04-03T01:58:36.926Z,4.00
2019-04-03T01:59:37.524Z,4.00
2019-04-03T02:00:37.649Z,4.00
2019-04-03T02:01:36.560Z,4.00
2019-04-03T02:02:36.860Z,4.00
2019-04-03T02:03:36.385Z,4.00
2019-04-03T02:04:36.357Z,4.00
2019-04-03T02:05:36.335Z,4.00
2019-04-03T02:06:36.312Z,4.00
2019-04-03T02:07:36.290Z,4.00
2019-04-03T02:08:36.271Z,4.00
2019-04-03T02:09:36.271Z,4.00
2019-04-03T02:10:36.441Z,4.00
2019-04-03T02:11:36.206Z,4.00
2019-04-03T02:12:36.198Z,4.00
2019-04-03T02:13:36.164Z,4.00
2019-04-03T02:14:36.153Z,4.00
2019-04-03T02:15:36.206Z,4.00
2019-04-03T02:16:36.098Z,4.00
2019-04-03T02:17:36.078Z,4.00
2019-04-03T02:18:36.229Z,4.00
2019-04-03T02:19:36.037Z,4.00
2019-04-03T02:20:36.022Z,4.00
2019-04-03T02:21:36.027Z,4.00
2019-04-03T02:22:35.973Z,4.00
2019-04-03T02:23:35.951Z,4.00
2019-04-03T02:24:35.932Z,4.00
2019-04-03T02:25:35.907Z,4.00
2019-04-03T02:26:35.969Z,4.00
2019-04-03T02:27:35.869Z,4.00
2019-04-03T02:28:35.843Z,4.00
2019-04-03T02:29:35.866Z,4.00
2019-04-03T02:30:36.097Z,4.00
2019-04-03T02:31:35.781Z,4.00
2019-04-03T02:32:35.764Z,4.00
2019-04-03T02:33:35.746Z,4.00
2019-04-03T02:34:36.631Z,4.00
2019-04-03T02:35:39.212Z,4.00
2019-04-03T02:36:36.004Z,4.00
2019-04-03T02:37:35.652Z,4.00
2019-04-03T02:38:35.641Z,4.00
2019-04-03T02:39:35.752Z,4.00
2019-04-03T02:40:35.590Z,4.00
2019-04-03T02:41:36.956Z,4.00
2019-04-03T02:42:35.546Z,4.00
2019-04-03T02:43:35.524Z,4.00
2019-04-03T02:44:35.506Z,4.00
2019-04-03T02:45:35.486Z,4.00
2019-04-03T02:46:35.493Z,4.00
2019-04-03T02:47:35.442Z,4.00
2019-04-03T02:48:38.286Z,4.00
2019-04-03T02:49:35.397Z,4.00
2019-04-03T02:50:35.395Z,4.00
2019-04-03T02:51:35.355Z,4.00
2019-04-03T02:52:35.330Z,4.00
2019-04-03T02:53:35.421Z,4.00
2019-04-03T02:54:36.003Z,4.00
2019-04-03T02:55:39.324Z,4.00
2019-04-03T02:56:35.252Z,4.00
2019-04-03T02:57:35.225Z,4.00
2019-04-03T02:58:35.203Z,4.00
2019-04-03T02:59:35.218Z,4.00
2019-04-03T03:00:35.168Z,4.00
2019-04-03T03:01:38.309Z,4.00
2019-04-03T03:02:35.116Z,4.00
2019-04-03T03:03:35.096Z,4.00
2019-04-03T03:04:35.076Z,4.00
2019-04-03T03:05:35.299Z,4.00
2019-04-03T03:06:35.034Z,4.00
2019-04-03T03:07:36.405Z,4.00
2019-04-03T03:08:34.991Z,4.00
2019-04-03T03:09:35.038Z,4.00
2019-04-03T03:10:34.943Z,4.00
2019-04-03T03:11:35.100Z,4.00
2019-04-03T03:12:34.905Z,4.00
2019-04-03T03:13:35.594Z,4.00
2019-04-03T03:14:38.238Z,4.00
2019-04-03T03:15:34.838Z,4.00
2019-04-03T03:16:34.815Z,4.00
2019-04-03T03:17:35.023Z,4.00
2019-04-03T03:18:34.769Z,4.00
2019-04-03T03:19:34.874Z,4.00
2019-04-03T03:20:39.008Z,4.00
2019-04-03T03:21:34.753Z,4.00
2019-04-03T03:22:34.692Z,4.00
2019-04-03T03:23:34.758Z,4.00
2019-04-03T03:24:34.872Z,4.00
2019-04-03T03:25:34.619Z,4.00
2019-04-03T03:26:37.457Z,4.00
2019-04-03T03:27:34.576Z,4.00
2019-04-03T03:28:34.890Z,4.00
2019-04-03T03:29:34.532Z,4.00
2019-04-03T03:30:44.466Z,4.00
2019-04-03T03:32:01.824Z,4.00
2019-04-03T03:32:36.340Z,4.00
2019-04-03T03:33:37.840Z,4.00
2019-04-03T03:34:51.969Z,4.00
2019-04-03T03:35:40.085Z,4.00
2019-04-03T03:36:34.963Z,4.00
2019-04-03T03:37:35.554Z,4.00
2019-04-03T03:38:38.207Z,4.00
2019-04-03T03:39:34.316Z,4.00
2019-04-03T03:40:34.307Z,4.00
2019-04-03T03:41:34.282Z,4.00
2019-04-03T03:42:34.258Z,4.00
2019-04-03T03:43:37.103Z,4.00
2019-04-03T03:44:34.219Z,4.00
2019-04-03T03:45:34.186Z,4.00
2019-04-03T03:46:34.167Z,4.00
2019-04-03T03:47:35.470Z,4.00
2019-04-03T03:48:34.401Z,4.00
2019-04-03T03:49:34.623Z,4.00
2019-04-03T03:50:34.076Z,4.00
2019-04-03T03:51:34.074Z,4.00
2019-04-03T03:52:36.798Z,4.00
2019-04-03T03:53:34.019Z,4.00
2019-04-03T03:54:33.988Z,4.00
2019-04-03T03:55:33.968Z,4.00
2019-04-03T03:56:33.954Z,4.00
2019-04-03T03:57:37.976Z,4.00
2019-04-03T03:58:33.935Z,4.00
2019-04-03T03:59:33.964Z,4.00
2019-04-03T04:00:33.858Z,4.00
2019-04-03T04:01:34.254Z,4.00
2019-04-03T04:02:34.282Z,4.00
2019-04-03T04:03:33.803Z,4.00
2019-04-03T04:04:34.060Z,4.00
2019-04-03T04:05:33.748Z,4.00
2019-04-03T04:06:36.269Z,4.00
2019-04-03T04:07:35.973Z,4.00
2019-04-03T04:08:33.691Z,4.00
2019-04-03T04:09:33.665Z,4.00
2019-04-03T04:10:36.307Z,4.00
2019-04-03T04:11:33.616Z,4.00
2019-04-03T04:12:33.601Z,4.00
2019-04-03T04:13:33.574Z,4.00
2019-04-03T04:14:33.806Z,4.00
2019-04-03T04:15:33.533Z,4.00
2019-04-03T04:16:37.087Z,4.00
2019-04-03T04:17:33.639Z,4.00
2019-04-03T04:18:33.461Z,4.00
2019-04-03T04:19:33.527Z,4.00
2019-04-03T04:20:36.624Z,4.00
2019-04-03T04:21:33.653Z,4.00
2019-04-03T04:22:33.792Z,4.00
2019-04-03T04:23:33.354Z,4.00
2019-04-03T04:24:33.451Z,4.00
2019-04-03T04:25:33.313Z,4.00
2019-04-03T04:26:33.287Z,4.00
2019-04-03T04:27:35.700Z,4.00
2019-04-03T04:28:33.244Z,8.00
2019-04-03T04:29:33.245Z,8.00
2019-04-03T04:30:33.197Z,4.00
2019-04-03T04:31:33.179Z,4.00
2019-04-03T04:32:33.301Z,4.00
2019-04-03T04:33:33.140Z,4.00
2019-04-03T04:34:33.110Z,4.00
2019-04-03T04:35:33.089Z,4.00
2019-04-03T04:36:33.065Z,8.00
2019-04-03T04:37:33.226Z,8.00
2019-04-03T04:38:33.022Z,8.00
2019-04-03T04:39:33.006Z,8.00
2019-04-03T04:40:32.978Z,8.00
2019-04-03T04:41:33.176Z,8.00
2019-04-03T04:42:34.615Z,12.00
2019-04-03T04:43:32.912Z,16.00
2019-04-03T04:44:32.891Z,16.00
2019-04-03T04:45:33.465Z,16.00
2019-04-03T04:46:32.845Z,16.00
2019-04-03T04:47:32.826Z,20.00
2019-04-03T04:48:33.021Z,20.00
2019-04-03T04:49:32.783Z,24.00
2019-04-03T04:50:32.956Z,24.00
2019-04-03T04:51:32.737Z,24.00
2019-04-03T04:52:32.864Z,24.00
2019-04-03T04:53:32.693Z,28.00
2019-04-03T04:54:32.754Z,36.00
2019-04-03T04:55:34.506Z,36.00
2019-04-03T04:56:32.627Z,40.00
2019-04-03T04:57:32.613Z,40.00
2019-04-03T04:58:32.584Z,44.00
2019-04-03T04:59:32.570Z,52.00
2019-04-03T05:00:32.541Z,56.00
2019-04-03T05:01:32.518Z,60.00
2019-04-03T05:02:32.504Z,64.00
2019-04-03T05:03:32.469Z,72.00
2019-04-03T05:04:32.449Z,76.00
2019-04-03T05:05:32.474Z,84.00
2019-04-03T05:06:32.407Z,100.00
2019-04-03T05:07:32.504Z,116.00
2019-04-03T05:08:32.948Z,128.00
2019-04-03T05:09:34.431Z,132.00
2019-04-03T05:10:32.323Z,132.00
2019-04-03T05:11:32.296Z,116.00
2019-04-03T05:12:32.272Z,112.00
2019-04-03T05:13:32.251Z,108.00
2019-04-03T05:14:32.263Z,116.00
2019-04-03T05:15:32.214Z,124.00
2019-04-03T05:16:32.272Z,148.00
2019-04-03T05:17:32.164Z,180.00
2019-04-03T05:18:32.140Z,220.00
2019-04-03T05:19:32.118Z,248.00
2019-04-03T05:20:32.096Z,260.00
2019-04-03T05:21:32.077Z,260.00
2019-04-03T05:22:32.059Z,248.00
2019-04-03T05:23:32.030Z,224.00
2019-04-03T05:24:32.008Z,216.00
2019-04-03T05:25:32.163Z,236.00
2019-04-03T05:26:32.720Z,260.00
2019-04-03T05:27:34.405Z,284.00
2019-04-03T05:28:34.036Z,300.00
2019-04-03T05:29:32.857Z,320.00
2019-04-03T05:30:31.878Z,328.00
2019-04-03T05:31:31.941Z,332.00
2019-04-03T05:32:31.893Z,332.00
2019-04-03T05:33:32.039Z,336.00
2019-04-03T05:34:31.803Z,368.00
2019-04-03T05:35:31.774Z,416.00
2019-04-03T05:36:31.769Z,432.00
2019-04-03T05:37:31.729Z,392.00
2019-04-03T05:38:31.702Z,324.00
2019-04-03T05:39:31.678Z,284.00
2019-04-03T05:40:31.656Z,296.00
2019-04-03T05:41:31.640Z,336.00
2019-04-03T05:42:31.616Z,348.00
2019-04-03T05:43:31.595Z,324.00
2019-04-03T05:44:33.462Z,304.00
2019-04-03T05:45:34.482Z,288.00
2019-04-03T05:46:31.526Z,276.00
2019-04-03T05:47:31.503Z,248.00
2019-04-03T05:48:31.480Z,240.00
2019-04-03T05:49:31.689Z,236.00
2019-04-03T05:50:31.447Z,236.00
2019-04-03T05:51:31.449Z,240.00
2019-04-03T05:52:32.989Z,244.00
2019-04-03T05:53:31.462Z,228.00
2019-04-03T05:54:31.361Z,216.00
2019-04-03T05:55:31.327Z,196.00
2019-04-03T05:56:31.310Z,188.00
2019-04-03T05:57:31.439Z,188.00
2019-04-03T05:58:31.273Z,204.00
2019-04-03T05:59:33.457Z,220.00
2019-04-03T06:00:31.221Z,248.00
2019-04-03T06:01:31.349Z,268.00
2019-04-03T06:02:31.176Z,284.00
2019-04-03T06:03:40.466Z,288.00
2019-04-03T06:04:31.132Z,300.00
2019-04-03T06:05:31.313Z,304.00
2019-04-03T06:06:31.088Z,328.00
2019-04-03T06:07:31.082Z,352.00
2019-04-03T06:08:33.945Z,396.00
2019-04-03T06:09:31.025Z,472.00
2019-04-03T06:10:32.477Z,536.00
2019-04-03T06:11:31.087Z,576.00
2019-04-03T06:12:30.957Z,596.00
2019-04-03T06:13:31.072Z,612.00
2019-04-03T06:14:31.143Z,644.00
2019-04-03T06:15:30.891Z,688.00
2019-04-03T06:16:31.060Z,720.00
2019-04-03T06:17:31.010Z,752.00
2019-04-03T06:18:32.025Z,828.00
2019-04-03T06:19:30.803Z,920.00
2019-04-03T06:20:30.788Z,936.00
2019-04-03T06:21:30.761Z,916.00
2019-04-03T06:22:30.739Z,892.00
2019-04-03T06:23:30.718Z,904.00
2019-04-03T06:24:30.695Z,996.00
2019-04-03T06:25:31.341Z,1096.00
2019-04-03T06:26:30.796Z,1112.00
2019-04-03T06:27:30.923Z,1068.00
2019-04-03T06:28:30.609Z,1004.00
2019-04-03T06:29:30.588Z,1004.00
2019-04-03T06:30:30.565Z,1056.00
2019-04-03T06:31:30.555Z,1136.00
2019-04-03T06:32:30.526Z,1160.00
2019-04-03T06:33:31.691Z,1212.00
2019-04-03T06:34:30.478Z,1260.00
2019-04-03T06:35:30.455Z,1184.00
2019-04-03T06:36:30.433Z,1180.00
2019-04-03T06:37:30.415Z,1224.00
2019-04-03T06:38:30.389Z,1244.00
2019-04-03T06:39:31.504Z,1208.00
2019-04-03T06:40:30.362Z,1324.00
2019-04-03T06:41:30.474Z,1344.00
2019-04-03T06:42:30.303Z,1104.00
2019-04-03T06:43:30.787Z,952.00
2019-04-03T06:44:30.429Z,964.00
2019-04-03T06:45:30.253Z,1052.00
2019-04-03T06:46:30.517Z,1112.00
2019-04-03T06:47:32.240Z,1116.00
2019-04-03T06:48:30.191Z,1096.00
2019-04-03T06:49:30.158Z,1036.00
2019-04-03T06:50:30.129Z,1032.00
2019-04-03T06:51:30.113Z,1040.00
2019-04-03T06:52:30.087Z,1080.00
2019-04-03T06:53:30.162Z,1208.00
2019-04-03T06:54:31.931Z,1348.00
2019-04-03T06:55:30.252Z,1460.00
2019-04-03T06:56:29.999Z,1560.00
2019-04-03T06:57:29.986Z,1572.00
2019-04-03T06:58:38.020Z,1552.00
2019-04-03T06:59:29.949Z,1560.00
2019-04-03T07:00:30.005Z,1576.00
2019-04-03T07:01:29.890Z,1532.00
2019-04-03T07:02:31.996Z,1464.00
2019-04-03T07:03:29.849Z,1400.00
2019-04-03T07:04:29.829Z,1372.00
2019-04-03T07:05:29.804Z,1440.00
2019-04-03T07:06:29.779Z,1548.00
2019-04-03T07:07:34.396Z,1572.00
2019-04-03T07:08:34.936Z,1572.00
2019-04-03T07:09:35.560Z,1560.00
2019-04-03T07:10:29.697Z,1616.00
2019-04-03T07:11:29.671Z,1760.00
2019-04-03T07:12:29.757Z,1856.00
2019-04-03T07:13:30.134Z,1864.00
2019-04-03T07:14:29.612Z,1996.00
2019-04-03T07:15:29.586Z,2528.00
2019-04-03T07:16:29.563Z,3020.00
2019-04-03T07:17:31.393Z,3128.00
2019-04-03T07:18:29.519Z,3068.00
2019-04-03T07:19:29.505Z,2980.00
2019-04-03T07:20:29.652Z,2744.00
2019-04-03T07:21:29.456Z,2404.00
2019-04-03T07:22:29.676Z,2072.00
2019-04-03T07:23:30.207Z,1864.00
2019-04-03T07:24:29.817Z,1820.00
2019-04-03T07:25:29.368Z,1924.00
2019-04-03T07:26:29.432Z,2008.00
2019-04-03T07:27:29.326Z,1896.00
2019-04-03T07:28:30.550Z,1776.00
2019-04-03T07:29:29.511Z,1756.00
2019-04-03T07:30:29.271Z,1848.00
2019-04-03T07:31:29.553Z,1948.00
2019-04-03T07:32:29.226Z,2028.00
2019-04-03T07:33:29.458Z,2028.00
2019-04-03T07:34:29.175Z,1952.00
2019-04-03T07:35:29.337Z,1784.00
2019-04-03T07:36:29.141Z,1552.00
2019-04-03T07:37:29.351Z,1416.00
2019-04-03T07:38:29.088Z,1384.00
2019-04-03T07:39:29.067Z,1396.00
2019-04-03T07:40:29.050Z,1428.00
2019-04-03T07:41:29.045Z,1488.00
2019-04-03T07:42:29.002Z,1636.00
2019-04-03T07:43:28.996Z,1920.00
2019-04-03T07:44:29.820Z,2176.00
2019-04-03T07:45:28.943Z,2332.00
2019-04-03T07:46:28.916Z,2404.00
2019-04-03T07:47:28.901Z,2336.00
2019-04-03T07:48:28.882Z,2184.00
2019-04-03T07:49:28.897Z,2036.00
2019-04-03T07:50:28.829Z,1908.00
2019-04-03T07:51:28.811Z,1772.00
2019-04-03T07:52:28.788Z,1664.00
2019-04-03T07:53:28.783Z,1676.00
2019-04-03T07:54:28.998Z,1768.00
2019-04-03T07:55:28.920Z,1872.00
2019-04-03T07:56:28.996Z,1940.00
2019-04-03T07:57:29.445Z,1960.00
2019-04-03T07:58:30.684Z,2036.00
2019-04-03T07:59:28.650Z,2176.00
2019-04-03T08:00:28.615Z,2412.00
2019-04-03T08:01:28.666Z,2736.00
2019-04-03T08:02:28.571Z,2928.00
2019-04-03T08:03:28.554Z,2964.00
2019-04-03T08:04:28.550Z,3000.00
2019-04-03T08:05:30.382Z,3204.00
2019-04-03T08:06:28.485Z,3484.00
2019-04-03T08:07:28.467Z,3628.00
2019-04-03T08:08:28.444Z,3636.00
2019-04-03T08:09:28.485Z,3632.00
2019-04-03T08:10:30.224Z,3368.00
2019-04-03T08:11:28.377Z,2840.00
2019-04-03T08:12:28.367Z,2528.00
2019-04-03T08:13:28.335Z,2304.00
2019-04-03T08:14:28.314Z,2084.00
2019-04-03T08:15:28.291Z,1852.00
2019-04-03T08:16:28.278Z,2024.00
2019-04-03T08:17:28.253Z,2364.00
2019-04-03T08:18:28.228Z,2600.00
2019-04-03T08:19:28.214Z,2664.00
2019-04-03T08:20:30.849Z,2632.00
2019-04-03T08:21:30.472Z,2880.00
2019-04-03T08:22:28.143Z,3028.00
2019-04-03T08:23:28.128Z,3128.00
2019-04-03T08:24:28.099Z,3156.00
2019-04-03T08:25:28.080Z,3032.00
2019-04-03T08:26:28.056Z,2860.00
2019-04-03T08:27:28.038Z,2736.00
2019-04-03T08:28:30.161Z,2648.00
2019-04-03T08:29:28.124Z,2644.00
2019-04-03T08:30:27.972Z,2756.00
2019-04-03T08:31:28.196Z,2964.00
2019-04-03T08:32:27.931Z,3164.00
2019-04-03T08:33:28.257Z,3284.00
2019-04-03T08:34:30.686Z,3336.00
2019-04-03T08:35:27.873Z,3476.00
2019-04-03T08:36:28.161Z,3772.00
2019-04-03T08:37:30.603Z,3972.00
2019-04-03T08:38:27.853Z,3900.00
2019-04-03T08:39:27.802Z,3808.00
2019-04-03T08:40:27.772Z,3776.00
2019-04-03T08:41:27.735Z,3752.00
2019-04-03T08:42:28.647Z,3700.00
2019-04-03T08:43:27.707Z,3780.00
2019-04-03T08:44:27.670Z,3944.00
2019-04-03T08:45:27.660Z,4044.00
2019-04-03T08:46:27.630Z,4072.00
2019-04-03T08:47:27.607Z,4088.00
2019-04-03T08:48:27.586Z,4276.00
2019-04-03T08:49:27.578Z,4536.00
2019-04-03T08:50:28.795Z,4688.00
2019-04-03T08:51:27.521Z,4720.00
2019-04-03T08:52:27.506Z,4728.00
2019-04-03T08:53:27.826Z,4720.00
2019-04-03T08:54:27.456Z,4596.00
2019-04-03T08:55:27.441Z,4444.00
2019-04-03T08:56:27.451Z,4360.00
2019-04-03T08:57:27.394Z,4380.00
2019-04-03T08:58:27.371Z,4496.00
2019-04-03T08:59:28.780Z,4596.00
2019-04-03T09:00:27.330Z,4476.00
2019-04-03T09:01:27.317Z,4276.00
2019-04-03T09:02:27.364Z,4140.00
2019-04-03T09:03:27.267Z,4076.00
2019-04-03T09:04:27.244Z,4196.00
2019-04-03T09:05:27.319Z,4304.00
2019-04-03T09:06:27.201Z,4272.00
2019-04-03T09:07:27.180Z,4168.00
2019-04-03T09:08:27.296Z,4052.00
2019-04-03T09:09:29.907Z,3960.00
2019-04-03T09:10:27.279Z,4000.00
2019-04-03T09:11:27.101Z,4148.00
2019-04-03T09:12:27.080Z,4332.00
2019-04-03T09:13:27.063Z,4420.00
2019-04-03T09:14:27.039Z,4296.00
2019-04-03T09:15:28.211Z,4092.00
2019-04-03T09:16:27.006Z,3924.00
2019-04-03T09:17:26.977Z,3980.00
2019-04-03T09:18:29.761Z,4168.00
2019-04-03T09:19:27.110Z,4224.00
2019-04-03T09:20:26.905Z,4048.00
2019-04-03T09:21:26.883Z,3688.00
2019-04-03T09:22:26.861Z,3336.00
2019-04-03T09:23:26.866Z,3096.00
2019-04-03T09:24:29.073Z,2920.00
2019-04-03T09:25:26.811Z,2812.00
2019-04-03T09:26:26.783Z,2784.00
2019-04-03T09:27:26.774Z,2780.00
2019-04-03T09:28:26.736Z,2876.00
2019-04-03T09:29:26.719Z,3076.00
2019-04-03T09:30:26.692Z,3344.00
2019-04-03T09:31:26.671Z,3744.00
2019-04-03T09:32:26.834Z,4184.00
2019-04-03T09:33:29.209Z,4488.00
2019-04-03T09:34:28.740Z,4952.00
2019-04-03T09:35:26.657Z,5280.00
2019-04-03T09:36:26.563Z,5132.00
2019-04-03T09:37:26.595Z,5204.00
2019-04-03T09:38:26.527Z,5356.00
2019-04-03T09:39:26.499Z,5356.00
2019-04-03T09:40:26.481Z,5268.00
2019-04-03T09:41:26.459Z,5208.00
2019-04-03T09:42:26.435Z,5116.00
2019-04-03T09:43:26.488Z,5028.00
2019-04-03T09:44:26.437Z,5044.00
2019-04-03T09:45:28.277Z,5184.00
2019-04-03T09:46:26.350Z,5464.00
2019-04-03T09:47:26.423Z,5836.00
2019-04-03T09:48:26.648Z,6144.00
2019-04-03T09:49:26.635Z,6232.00
2019-04-03T09:50:26.264Z,5972.00
2019-04-03T09:51:26.247Z,5564.00
2019-04-03T09:52:38.365Z,5416.00
2019-04-03T09:53:26.750Z,5756.00
2019-04-03T09:54:28.326Z,6264.00
2019-04-03T09:55:26.166Z,6436.00
2019-04-03T09:56:26.143Z,6404.00
2019-04-03T09:57:26.120Z,6448.00
2019-04-03T09:58:26.261Z,6484.00
2019-04-03T09:59:26.410Z,6368.00
2019-04-03T10:00:26.102Z,6120.00
2019-04-03T10:01:26.118Z,5848.00
2019-04-03T10:02:26.013Z,5640.00
2019-04-03T10:03:26.040Z,5512.00
2019-04-03T10:04:26.767Z,5408.00
2019-04-03T10:05:26.797Z,5356.00
2019-04-03T10:06:25.929Z,5432.00
2019-04-03T10:07:25.937Z,5576.00
2019-04-03T10:08:25.976Z,5896.00
2019-04-03T10:09:25.872Z,6456.00
2019-04-03T10:10:26.362Z,7084.00
2019-04-03T10:11:25.826Z,7600.00
2019-04-03T10:12:25.837Z,8092.00
2019-04-03T10:13:26.354Z,8616.00
2019-04-03T10:14:28.190Z,9192.00
2019-04-03T10:15:26.014Z,9800.00
2019-04-03T10:16:25.733Z,10104.00
2019-04-03T10:17:25.810Z,10048.00
2019-04-03T10:18:25.697Z,9936.00
2019-04-03T10:19:25.659Z,9732.00
2019-04-03T10:20:25.638Z,9416.00
2019-04-03T10:21:25.618Z,9072.00
2019-04-03T10:22:25.599Z,9004.00
2019-04-03T10:23:28.178Z,9120.00
2019-04-03T10:24:25.566Z,9196.00
2019-04-03T10:25:25.536Z,9324.00
2019-04-03T10:26:25.515Z,9356.00
2019-04-03T10:27:25.791Z,9332.00
2019-04-03T10:28:25.532Z,9340.00
2019-04-03T10:29:25.469Z,9268.00
2019-04-03T10:30:25.432Z,9000.00
2019-04-03T10:31:25.417Z,8528.00
2019-04-03T10:32:27.678Z,8148.00
2019-04-03T10:33:25.419Z,8036.00
2019-04-03T10:34:25.360Z,8096.00
2019-04-03T10:35:25.336Z,8324.00
2019-04-03T10:36:25.335Z,8372.00
2019-04-03T10:37:25.516Z,7948.00
2019-04-03T10:38:25.263Z,7872.00
2019-04-03T10:39:25.553Z,8064.00
2019-04-03T10:40:25.475Z,8412.00
2019-04-03T10:41:27.637Z,8704.00
2019-04-03T10:42:25.188Z,9264.00
2019-04-03T10:43:25.158Z,9880.00
2019-04-03T10:44:25.267Z,10480.00
2019-04-03T10:45:25.124Z,11284.00
2019-04-03T10:46:25.305Z,11812.00
2019-04-03T10:47:34.586Z,11804.00
2019-04-03T10:48:25.726Z,11732.00
2019-04-03T10:49:25.032Z,12020.00
2019-04-03T10:50:25.226Z,12416.00
2019-04-03T10:51:25.274Z,12684.00
2019-04-03T10:52:24.970Z,12724.00
2019-04-03T10:53:24.948Z,12564.00
2019-04-03T10:54:25.753Z,12436.00
2019-04-03T10:55:27.291Z,12552.00
2019-04-03T10:56:24.884Z,12724.00
2019-04-03T10:57:25.097Z,12896.00
2019-04-03T10:58:24.905Z,13156.00
2019-04-03T10:59:24.832Z,13384.00
2019-04-03T11:00:28.571Z,13568.00
2019-04-03T11:01:24.794Z,13764.00
2019-04-03T11:02:24.767Z,13656.00
2019-04-03T11:03:26.153Z,13376.00
2019-04-03T11:04:25.022Z,13276.00
2019-04-03T11:05:25.106Z,13444.00
2019-04-03T11:06:24.685Z,13764.00
2019-04-03T11:07:24.672Z,13516.00
2019-04-03T11:08:24.782Z,12616.00
2019-04-03T11:09:24.620Z,12020.00
2019-04-03T11:10:25.302Z,11864.00
2019-04-03T11:11:24.837Z,11976.00
2019-04-03T11:12:24.750Z,12204.00
2019-04-03T11:13:24.759Z,12480.00
2019-04-03T11:14:24.820Z,12588.00
2019-04-03T11:15:24.497Z,12524.00
2019-04-03T11:16:24.480Z,12416.00
2019-04-03T11:17:25.718Z,12444.00
2019-04-03T11:18:24.444Z,12652.00
2019-04-03T11:19:24.418Z,12736.00
2019-04-03T11:20:24.397Z,12360.00
2019-04-03T11:21:24.380Z,11528.00
2019-04-03T11:22:24.492Z,11252.00
2019-04-03T11:23:36.909Z,11928.00
2019-04-03T11:24:24.545Z,12368.00
2019-04-03T11:25:24.322Z,12500.00
2019-04-03T11:26:25.099Z,12876.00
2019-04-03T11:27:40.256Z,13916.00
2019-04-03T11:28:24.240Z,15300.00
2019-04-03T11:29:24.239Z,16492.00
2019-04-03T11:30:24.923Z,17504.00
2019-04-03T11:31:28.006Z,19168.00
2019-04-03T11:32:24.155Z,20672.00
2019-04-03T11:33:24.143Z,19104.00
2019-04-03T11:34:24.120Z,16588.00
2019-04-03T11:35:24.096Z,16480.00
2019-04-03T11:36:26.005Z,17376.00
2019-04-03T11:37:24.088Z,17312.00
2019-04-03T11:38:27.783Z,15216.00
2019-04-03T11:39:24.196Z,14580.00
2019-04-03T11:40:25.365Z,14992.00
2019-04-03T11:41:24.481Z,15056.00
2019-04-03T11:42:28.573Z,14652.00
2019-04-03T11:43:24.309Z,14100.00
2019-04-03T11:44:23.935Z,13288.00
2019-04-03T11:45:23.954Z,12364.00
2019-04-03T11:46:24.162Z,11696.00
2019-04-03T11:47:23.870Z,11464.00
2019-04-03T11:48:26.670Z,11208.00
2019-04-03T11:49:23.822Z,10448.00
2019-04-03T11:50:25.115Z,9656.00
2019-04-03T11:51:23.782Z,9244.00
2019-04-03T11:52:23.771Z,9128.00
2019-04-03T11:53:23.809Z,9284.00
2019-04-03T11:54:23.905Z,9756.00
2019-04-03T11:55:23.705Z,10636.00
2019-04-03T11:56:23.916Z,11816.00
2019-04-03T11:57:26.647Z,13040.00
2019-04-03T11:58:23.645Z,14488.00
2019-04-03T11:59:24.432Z,14996.00
2019-04-03T12:00:23.604Z,14152.00
2019-04-03T12:01:23.594Z,14648.00
2019-04-03T12:02:23.853Z,14284.00
2019-04-03T12:03:23.569Z,14308.00
2019-04-03T12:04:23.630Z,13952.00
2019-04-03T12:05:23.928Z,14576.00
2019-04-03T12:06:23.501Z,15500.00
2019-04-03T12:07:25.108Z,16252.00
2019-04-03T12:08:23.785Z,16536.00
2019-04-03T12:09:23.524Z,16152.00
2019-04-03T12:10:25.388Z,16188.00
2019-04-03T12:11:23.838Z,16800.00
2019-04-03T12:12:23.812Z,17760.00
2019-04-03T12:13:23.348Z,17728.00
2019-04-03T12:14:23.624Z,15760.00
2019-04-03T12:15:23.690Z,13612.00
2019-04-03T12:16:24.790Z,11872.00
2019-04-03T12:17:23.278Z,10836.00
2019-04-03T12:18:23.254Z,10164.00
2019-04-03T12:19:23.560Z,9612.00
2019-04-03T12:20:23.205Z,9660.00
2019-04-03T12:21:23.201Z,9896.00
2019-04-03T12:22:23.203Z,9864.00
2019-04-03T12:23:25.612Z,9624.00
2019-04-03T12:24:23.131Z,9364.00
2019-04-03T12:25:23.115Z,9424.00
2019-04-03T12:26:23.194Z,9916.00
2019-04-03T12:27:23.123Z,10332.00
2019-04-03T12:28:23.060Z,10308.00
2019-04-03T12:29:23.205Z,10140.00
2019-04-03T12:30:23.076Z,10252.00
2019-04-03T12:31:23.139Z,11504.00
2019-04-03T12:32:22.979Z,14804.00